createdAt,value
2018-12-06T00:00:09.264Z,396.30
2018-12-06T00:03:07.758Z,399.37
2018-12-06T00:06:03.683Z,398.87
2018-12-06T00:09:02.863Z,394.85
2018-12-06T00:11:58.661Z,397.45
2018-12-06T00:14:54.885Z,400.87
2018-12-06T00:17:50.555Z,385.48
2018-12-06T00:20:46.109Z,397.02
2018-12-06T00:23:41.568Z,410.05
2018-12-06T00:26:37.190Z,431.37
2018-12-06T00:29:33.131Z,434.20
2018-12-06T00:32:28.802Z,425.02
2018-12-06T00:35:27.042Z,433.95
2018-12-06T00:38:30.114Z,434.33
2018-12-06T00:41:18.301Z,432.15
2018-12-06T00:44:13.766Z,407.55
2018-12-06T00:47:09.485Z,382.98
2018-12-06T00:50:04.923Z,416.57
2018-12-06T00:53:00.347Z,414.37
2018-12-06T00:55:56.536Z,428.18
2018-12-06T00:58:51.901Z,436.08
2018-12-06T01:01:47.875Z,414.57
2018-12-06T01:04:43.597Z,433.87
2018-12-06T01:07:39.129Z,439.87
2018-12-06T01:10:34.906Z,456.15
2018-12-06T01:13:30.548Z,461.70
2018-12-06T01:16:26.422Z,454.05
2018-12-06T01:19:21.679Z,442.50
2018-12-06T01:22:17.342Z,460.40
2018-12-06T01:25:13.621Z,466.55
2018-12-06T01:28:09.917Z,468.50
2018-12-06T01:31:05.677Z,450.25
2018-12-06T01:34:01.516Z,447.73
2018-12-06T01:36:57.477Z,440.58
2018-12-06T01:39:53.044Z,443.90
2018-12-06T01:42:48.446Z,466.48
2018-12-06T01:45:43.946Z,460.43
2018-12-06T01:48:39.784Z,448.28
2018-12-06T01:51:38.096Z,445.82
2018-12-06T01:54:33.922Z,410.85
2018-12-06T01:57:29.695Z,401.37
2018-12-06T02:00:25.081Z,394.48
2018-12-06T02:03:20.552Z,393.85
2018-12-06T02:06:16.426Z,395.65
2018-12-06T02:09:16.483Z,414.97
2018-12-06T02:12:12.215Z,396.93
2018-12-06T02:15:08.083Z,380.18
2018-12-06T02:18:04.444Z,380.65
2018-12-06T02:21:00.120Z,377.62
2018-12-06T02:23:55.658Z,352.02
2018-12-06T02:26:51.459Z,373.45
2018-12-06T02:29:58.893Z,379.60
2018-12-06T02:32:55.225Z,354.30
2018-12-06T02:35:51.143Z,364.15
2018-12-06T02:38:51.172Z,368.33
2018-12-06T02:41:43.487Z,341.80
2018-12-06T02:44:39.843Z,316.88
2018-12-06T02:47:35.972Z,330.20
2018-12-06T02:50:32.000Z,366.63
2018-12-06T02:53:27.791Z,354.43
2018-12-06T02:56:24.827Z,360.43
2018-12-06T02:59:20.575Z,351.30
2018-12-06T03:02:17.085Z,364.27
2018-12-06T03:05:13.257Z,355.37
2018-12-06T03:08:08.907Z,335.08
2018-12-06T03:11:04.870Z,354.85
2018-12-06T03:14:00.661Z,320.67
2018-12-06T03:16:56.751Z,323.30
2018-12-06T03:19:52.570Z,323.65
2018-12-06T03:22:48.826Z,334.48
2018-12-06T03:25:44.393Z,339.88
2018-12-06T03:28:40.498Z,341.65
2018-12-06T03:31:36.165Z,356.63
2018-12-06T03:34:32.192Z,366.25
2018-12-06T03:37:28.384Z,380.05
2018-12-06T03:40:24.343Z,389.02
2018-12-06T03:43:20.141Z,356.30
2018-12-06T03:46:17.214Z,348.70
2018-12-06T03:49:16.448Z,322.77
2018-12-06T03:52:15.640Z,319.13
2018-12-06T03:55:11.639Z,335.77
2018-12-06T03:58:07.440Z,311.82
2018-12-06T04:01:03.216Z,297.63
2018-12-06T04:03:59.800Z,324.77
2018-12-06T04:06:55.750Z,307.05
2018-12-06T04:09:51.226Z,306.82
2018-12-06T04:12:46.829Z,301.92
2018-12-06T04:15:44.898Z,283.50
2018-12-06T04:18:40.710Z,268.27
2018-12-06T04:21:36.201Z,290.25
2018-12-06T04:24:31.783Z,290.20
2018-12-06T04:27:27.611Z,280.25
2018-12-06T04:30:23.362Z,225.28
2018-12-06T04:33:19.015Z,251.20
2018-12-06T04:36:14.866Z,257.00
2018-12-06T04:39:12.952Z,244.20
2018-12-06T04:42:08.890Z,219.18
2018-12-06T04:45:04.653Z,215.40
2018-12-06T04:48:00.863Z,223.60
2018-12-06T04:50:58.112Z,224.35
2018-12-06T04:53:53.881Z,220.52
2018-12-06T04:56:51.002Z,230.15
2018-12-06T04:59:48.349Z,209.50
2018-12-06T05:02:45.920Z,217.22
2018-12-06T05:05:44.920Z,240.32
2018-12-06T05:08:38.266Z,196.28
2018-12-06T05:11:34.077Z,213.37
2018-12-06T05:14:33.375Z,197.57
2018-12-06T05:17:29.342Z,197.57
2018-12-06T05:20:27.328Z,191.82
2018-12-06T05:23:25.304Z,193.22
2018-12-06T05:26:22.521Z,182.17
2018-12-06T05:29:21.277Z,181.87
2018-12-06T05:32:21.116Z,194.35
2018-12-06T05:35:17.934Z,193.62
2018-12-06T05:38:14.678Z,190.90
2018-12-06T05:41:10.961Z,181.02
2018-12-06T05:44:10.133Z,180.87
2018-12-06T05:47:06.222Z,186.37
2018-12-06T05:50:09.045Z,183.25
2018-12-06T05:53:03.998Z,186.97
2018-12-06T05:56:11.085Z,197.60
2018-12-06T05:59:10.380Z,182.20
2018-12-06T06:02:08.684Z,194.90
2018-12-06T06:05:18.100Z,190.30
2018-12-06T06:08:16.350Z,197.02
2018-12-06T06:11:13.480Z,186.03
2018-12-06T06:14:10.040Z,180.82
2018-12-06T06:17:09.890Z,184.45
2018-12-06T06:20:07.786Z,161.30
2018-12-06T06:23:04.775Z,159.97
2018-12-06T06:26:03.526Z,175.93
2018-12-06T06:29:03.437Z,164.35
2018-12-06T06:32:05.133Z,165.45
2018-12-06T06:35:11.139Z,179.95
2018-12-06T06:38:17.189Z,185.48
2018-12-06T06:41:15.110Z,178.20
2018-12-06T06:44:13.915Z,170.40
2018-12-06T06:47:09.952Z,165.10
2018-12-06T06:50:06.353Z,168.40
2018-12-06T06:53:02.866Z,162.77
2018-12-06T06:55:59.192Z,156.12
2018-12-06T06:58:59.450Z,156.80
2018-12-06T07:01:56.851Z,181.40
2018-12-06T07:04:55.676Z,144.97
2018-12-06T07:07:53.490Z,172.22
2018-12-06T07:10:50.856Z,169.37
2018-12-06T07:13:48.964Z,163.90
2018-12-06T07:16:48.638Z,172.80
2018-12-06T07:19:56.070Z,163.00
2018-12-06T07:22:56.153Z,159.75
2018-12-06T07:25:58.071Z,186.43
2018-12-06T07:29:01.070Z,177.02
2018-12-06T07:32:19.331Z,163.80
2018-12-06T07:35:32.163Z,184.35
2018-12-06T07:38:33.311Z,163.90
2018-12-06T07:41:30.218Z,177.05
2018-12-06T07:44:29.808Z,166.77
2018-12-06T07:47:26.355Z,189.67
2018-12-06T07:50:23.036Z,176.35
2018-12-06T07:53:19.692Z,168.97
2018-12-06T07:56:19.608Z,201.15
2018-12-06T07:59:12.559Z,198.75
2018-12-06T08:02:09.936Z,188.30
2018-12-06T08:05:06.573Z,191.53
2018-12-06T08:08:06.804Z,209.22
2018-12-06T08:11:04.758Z,208.75
2018-12-06T08:14:21.993Z,207.72
2018-12-06T08:17:19.807Z,226.00
2018-12-06T08:20:16.628Z,198.80
2018-12-06T08:23:14.058Z,210.38
2018-12-06T08:26:14.727Z,204.20
2018-12-06T08:29:13.126Z,199.15
2018-12-06T08:32:23.782Z,216.45
2018-12-06T08:35:23.153Z,193.35
2018-12-06T08:38:23.034Z,201.98
2018-12-06T08:41:19.907Z,193.05
2018-12-06T08:44:21.281Z,202.00
2018-12-06T08:47:12.530Z,209.65
2018-12-06T08:50:12.806Z,199.90
2018-12-06T08:53:14.364Z,232.40
2018-12-06T08:56:11.147Z,242.25
2018-12-06T08:59:07.310Z,243.73
2018-12-06T09:02:08.651Z,270.63
2018-12-06T09:05:06.275Z,243.27
2018-12-06T09:08:05.516Z,221.77
2018-12-06T09:11:04.542Z,215.35
2018-12-06T09:14:01.981Z,234.00
2018-12-06T09:16:58.095Z,225.05
2018-12-06T09:19:56.627Z,231.72
2018-12-06T09:23:01.385Z,252.78
2018-12-06T09:26:05.901Z,225.22
2018-12-06T09:29:21.872Z,229.78
2018-12-06T09:32:29.841Z,211.30
2018-12-06T09:35:26.029Z,192.95
2018-12-06T09:38:40.738Z,189.22
2018-12-06T09:41:44.008Z,178.75
2018-12-06T09:44:43.297Z,176.47
2018-12-06T09:47:43.334Z,185.82
2018-12-06T09:50:41.461Z,185.00
2018-12-06T09:53:38.551Z,198.62
2018-12-06T09:56:37.665Z,188.95
2018-12-06T09:59:33.361Z,198.20
2018-12-06T10:02:29.850Z,184.60
2018-12-06T10:05:26.622Z,187.77
2018-12-06T10:08:22.491Z,188.68
2018-12-06T10:11:17.997Z,185.90
2018-12-06T10:14:13.757Z,171.72
2018-12-06T10:17:10.897Z,176.68
2018-12-06T10:20:12.224Z,179.87
2018-12-06T10:26:37.466Z,168.15
2018-12-06T10:29:37.578Z,169.47
2018-12-06T10:32:35.299Z,159.25
2018-12-06T10:35:48.461Z,169.35
2018-12-06T10:38:58.008Z,173.97
2018-12-06T10:41:57.004Z,171.75
2018-12-06T10:48:48.767Z,186.15
2018-12-06T10:51:58.961Z,160.88
2018-12-06T10:54:57.866Z,176.30
2018-12-06T10:58:03.109Z,170.95
2018-12-06T11:01:13.630Z,182.30
2018-12-06T11:04:20.971Z,197.32
2018-12-06T11:07:22.262Z,212.68
2018-12-06T11:10:20.100Z,218.80
2018-12-06T11:13:59.749Z,205.50
2018-12-06T11:17:08.056Z,194.20
2018-12-06T11:20:06.502Z,220.07
2018-12-06T11:23:03.996Z,232.12
2018-12-06T11:26:00.567Z,228.12
2018-12-06T11:28:56.540Z,232.57
2018-12-06T11:31:53.089Z,247.35
2018-12-06T11:34:49.797Z,232.60
2018-12-06T11:37:46.333Z,243.97
2018-12-06T11:40:42.460Z,252.82
2018-12-06T11:43:39.419Z,258.23
2018-12-06T11:46:36.618Z,270.27
2018-12-06T11:49:41.400Z,283.62
2018-12-06T11:52:41.913Z,272.95
2018-12-06T11:55:38.607Z,278.80
2018-12-06T11:58:36.125Z,274.23
2018-12-06T12:04:00.131Z,290.25
2018-12-06T12:07:00.202Z,292.07
2018-12-06T12:10:01.792Z,300.70
2018-12-06T12:12:59.059Z,305.87
2018-12-06T12:15:58.573Z,284.87
2018-12-06T12:18:55.619Z,314.93
2018-12-06T12:21:52.446Z,299.60
2018-12-06T12:24:58.206Z,314.70
2018-12-06T12:27:52.934Z,305.83
2018-12-06T12:30:50.229Z,314.88
2018-12-06T12:33:48.576Z,311.37
2018-12-06T12:36:46.302Z,306.80
2018-12-06T12:39:44.157Z,325.60
2018-12-06T12:42:46.929Z,337.80
2018-12-06T12:45:42.893Z,340.70
2018-12-06T12:48:42.196Z,348.27
2018-12-06T12:51:41.834Z,414.85
2018-12-06T12:54:39.005Z,409.00
2018-12-06T12:57:35.470Z,431.10
2018-12-06T13:00:32.019Z,500.22
2018-12-06T13:03:29.645Z,468.65
2018-12-06T13:06:30.267Z,430.03
2018-12-06T13:09:27.426Z,420.40
2018-12-06T13:12:24.475Z,427.25
2018-12-06T13:15:21.258Z,409.35
2018-12-06T13:18:16.938Z,417.87
2018-12-06T13:21:13.774Z,375.10
2018-12-06T13:24:10.216Z,403.52
2018-12-06T13:27:06.339Z,427.15
2018-12-06T13:30:02.570Z,392.13
2018-12-06T13:32:59.099Z,379.85
2018-12-06T13:35:55.794Z,389.30
2018-12-06T13:38:52.280Z,408.27
2018-12-06T13:41:49.140Z,387.68
2018-12-06T13:44:45.994Z,392.23
2018-12-06T13:47:42.930Z,379.20
2018-12-06T13:50:39.685Z,393.05
2018-12-06T13:53:36.323Z,399.62
2018-12-06T13:56:36.076Z,386.12
2018-12-06T13:59:29.832Z,345.90
2018-12-06T14:02:25.996Z,340.35
2018-12-06T14:05:22.237Z,347.50
2018-12-06T14:08:19.504Z,359.18
2018-12-06T14:11:16.266Z,340.45
2018-12-06T14:14:12.806Z,336.48
2018-12-06T14:17:08.940Z,331.27
2018-12-06T14:20:05.329Z,328.07
2018-12-06T14:23:01.916Z,308.95
2018-12-06T14:25:57.943Z,304.48
2018-12-06T14:28:54.375Z,279.57
2018-12-06T14:31:50.192Z,270.05
2018-12-06T14:34:46.649Z,279.98
2018-12-06T14:37:42.763Z,268.75
2018-12-06T14:40:39.129Z,261.00
2018-12-06T14:43:35.680Z,273.25
2018-12-06T14:46:31.882Z,275.50
2018-12-06T14:49:28.246Z,271.35
2018-12-06T14:52:24.301Z,267.55
2018-12-06T14:55:20.610Z,282.15
2018-12-06T14:58:17.712Z,289.57
2018-12-06T15:01:15.115Z,272.33
2018-12-06T15:04:12.634Z,280.60
2018-12-06T15:07:10.514Z,292.73
2018-12-06T15:10:07.608Z,278.20
2018-12-06T15:13:04.049Z,276.07
2018-12-06T15:16:01.767Z,277.95
2018-12-06T15:18:57.920Z,286.55
2018-12-06T15:21:54.692Z,275.18
2018-12-06T15:24:52.301Z,281.80
2018-12-06T15:27:49.440Z,279.30
2018-12-06T15:30:46.223Z,282.90
2018-12-06T15:33:42.774Z,286.45
2018-12-06T15:36:39.269Z,304.15
2018-12-06T15:39:35.774Z,322.93
2018-12-06T15:42:32.898Z,344.55
2018-12-06T15:45:29.503Z,311.98
2018-12-06T15:48:26.245Z,315.98
2018-12-06T15:51:22.660Z,302.68
2018-12-06T15:54:19.343Z,329.82
2018-12-06T15:57:16.373Z,312.02
2018-12-06T16:00:15.677Z,324.07
2018-12-06T16:03:12.006Z,309.07
2018-12-06T16:06:08.554Z,321.93
2018-12-06T16:09:05.433Z,275.35
2018-12-06T16:12:03.398Z,269.95
2018-12-06T16:14:59.815Z,274.42
2018-12-06T16:17:55.888Z,263.00
2018-12-06T16:20:56.387Z,267.60
2018-12-06T16:23:49.433Z,271.93
2018-12-06T16:26:46.464Z,273.23
2018-12-06T16:29:51.215Z,299.45
2018-12-06T16:32:40.915Z,285.02
2018-12-06T16:35:38.750Z,282.57
2018-12-06T16:38:35.881Z,275.22
2018-12-06T16:41:33.237Z,314.15
2018-12-06T16:44:29.966Z,289.80
2018-12-06T16:47:26.634Z,300.32
2018-12-06T16:50:23.297Z,304.48
2018-12-06T16:53:19.961Z,301.90
2018-12-06T16:56:20.053Z,307.92
2018-12-06T16:59:16.443Z,320.67
2018-12-06T17:02:14.480Z,321.40
2018-12-06T17:05:11.718Z,286.82
2018-12-06T17:08:08.721Z,293.37
2018-12-06T17:11:04.799Z,293.75
2018-12-06T17:14:01.819Z,286.32
2018-12-06T17:16:58.301Z,287.02
2018-12-06T17:19:54.834Z,283.43
2018-12-06T17:22:51.578Z,280.25
2018-12-06T17:25:47.590Z,298.02
2018-12-06T17:28:44.008Z,287.17
2018-12-06T17:31:40.677Z,313.15
2018-12-06T17:34:36.894Z,294.95
2018-12-06T17:37:33.032Z,293.20
2018-12-06T17:40:29.350Z,286.10
2018-12-06T17:43:25.516Z,307.87
2018-12-06T17:46:21.257Z,303.83
2018-12-06T17:49:17.276Z,300.30
2018-12-06T17:52:13.645Z,303.07
2018-12-06T17:55:09.902Z,300.60
2018-12-06T17:58:06.441Z,280.30
2018-12-06T18:01:02.670Z,305.95
2018-12-06T18:03:58.301Z,299.58
2018-12-06T18:06:54.427Z,281.63
2018-12-06T18:09:50.857Z,300.43
2018-12-06T18:12:47.063Z,277.07
2018-12-06T18:15:43.836Z,280.45
2018-12-06T18:18:40.535Z,300.50
2018-12-06T18:21:36.389Z,305.07
2018-12-06T18:24:33.045Z,281.02
2018-12-06T18:27:29.872Z,279.05
2018-12-06T18:30:26.344Z,279.32
2018-12-06T18:33:23.056Z,271.80
2018-12-06T18:36:22.649Z,267.85
2018-12-06T18:39:16.661Z,269.90
2018-12-06T18:42:12.716Z,261.43
2018-12-06T18:45:08.477Z,272.90
2018-12-06T18:48:04.344Z,270.05
2018-12-06T18:51:00.766Z,288.60
2018-12-06T18:53:56.543Z,266.30
2018-12-06T18:56:52.608Z,282.70
2018-12-06T18:59:48.761Z,279.30
2018-12-06T19:02:44.445Z,267.37
2018-12-06T19:05:40.282Z,305.25
2018-12-06T19:08:36.720Z,287.45
2018-12-06T19:11:33.259Z,266.48
2018-12-06T19:14:29.497Z,277.07
2018-12-06T19:17:26.337Z,286.95
2018-12-06T19:20:22.673Z,289.48
2018-12-06T19:23:18.597Z,279.32
2018-12-06T19:26:14.932Z,285.57
2018-12-06T19:29:19.142Z,274.88
2018-12-06T19:32:15.381Z,268.27
2018-12-06T19:35:10.890Z,281.17
2018-12-06T19:38:12.978Z,298.43
2018-12-06T19:41:06.529Z,281.02
2018-12-06T19:44:02.619Z,258.25
2018-12-06T19:46:58.536Z,264.00
2018-12-06T19:49:54.943Z,286.60
2018-12-06T19:52:51.088Z,314.02
2018-12-06T19:55:46.976Z,292.07
2018-12-06T19:58:43.039Z,293.58
2018-12-06T20:01:39.031Z,297.95
2018-12-06T20:04:35.478Z,290.18
2018-12-06T20:07:31.807Z,283.55
2018-12-06T20:10:28.021Z,268.82
2018-12-06T20:13:24.759Z,295.03
2018-12-06T20:16:23.810Z,281.50
2018-12-06T20:19:20.318Z,295.60
2018-12-06T20:22:16.390Z,292.98
2018-12-06T20:25:12.558Z,314.70
2018-12-06T20:28:08.718Z,308.05
2018-12-06T20:31:07.177Z,331.25
2018-12-06T20:34:03.329Z,321.13
2018-12-06T20:36:59.440Z,328.25
2018-12-06T20:39:57.882Z,332.30
2018-12-06T20:42:52.206Z,340.37
2018-12-06T20:45:48.245Z,353.83
2018-12-06T20:48:47.549Z,385.13
2018-12-06T20:51:44.015Z,381.82
2018-12-06T20:54:40.110Z,389.82
2018-12-06T20:57:37.446Z,385.90
2018-12-06T21:00:33.190Z,385.27
2018-12-06T21:03:29.176Z,395.85
2018-12-06T21:06:25.866Z,383.02
2018-12-06T21:09:21.979Z,384.32
2018-12-06T21:12:18.125Z,413.27
2018-12-06T21:15:14.030Z,416.82
2018-12-06T21:18:10.263Z,380.02
2018-12-06T21:21:06.372Z,408.72
2018-12-06T21:24:02.757Z,400.98
2018-12-06T21:27:02.554Z,378.25
2018-12-06T21:29:58.952Z,382.80
2018-12-06T21:32:54.549Z,363.10
2018-12-06T21:35:53.903Z,357.80
2018-12-06T21:38:50.047Z,370.40
2018-12-06T21:41:46.047Z,364.52
2018-12-06T21:44:42.277Z,356.63
2018-12-06T21:47:38.418Z,350.60
2018-12-06T21:50:34.859Z,325.75
2018-12-06T21:53:30.636Z,352.27
2018-12-06T21:56:26.613Z,340.92
2018-12-06T21:59:22.934Z,340.87
2018-12-06T22:02:32.990Z,367.07
2018-12-06T22:05:29.436Z,345.12
2018-12-06T22:08:25.934Z,340.62
2018-12-06T22:11:22.087Z,335.35
2018-12-06T22:14:18.162Z,323.40
2018-12-06T22:17:14.912Z,346.20
2018-12-06T22:20:12.333Z,327.27
2018-12-06T22:23:11.692Z,331.00
2018-12-06T22:26:07.654Z,337.50
2018-12-06T22:29:04.090Z,324.85
2018-12-06T22:32:00.750Z,322.60
2018-12-06T22:34:56.669Z,332.98
2018-12-06T22:37:53.300Z,347.20
2018-12-06T22:40:49.637Z,339.82
2018-12-06T22:43:45.466Z,328.37
2018-12-06T22:46:41.789Z,349.52
2018-12-06T22:49:39.148Z,341.93
2018-12-06T22:52:34.462Z,337.17
2018-12-06T22:55:32.924Z,345.48
2018-12-06T22:58:28.960Z,352.68
2018-12-06T23:01:44.404Z,355.02
2018-12-06T23:04:40.504Z,346.93
2018-12-06T23:07:37.632Z,385.48
2018-12-06T23:10:33.621Z,372.20
2018-12-06T23:13:29.894Z,383.50
2018-12-06T23:16:26.022Z,403.30
2018-12-06T23:19:22.320Z,409.13
2018-12-06T23:22:18.697Z,394.40
2018-12-06T23:25:15.638Z,435.27
2018-12-06T23:28:13.063Z,439.27
2018-12-06T23:31:08.614Z,482.73
2018-12-06T23:34:04.742Z,442.95
2018-12-06T23:37:00.663Z,460.97
2018-12-06T23:39:56.871Z,440.58
2018-12-06T23:42:53.848Z,446.53
2018-12-06T23:45:53.691Z,426.80
2018-12-06T23:48:46.508Z,450.60
2018-12-06T23:51:46.448Z,442.93
2018-12-06T23:54:41.821Z,442.00
2018-12-06T23:57:38.382Z,455.05
